Metar Cercanos

 

LEPA - Palma De Mallorc, Spain
Distance from station: ONO 38km
Actualización: Mon, 18-Oct-2021 9:30pm CEST
Muy nuboso
Muy nuboso
 Viento del ENE
Viento: ENE 9 km/h
Temperatura: 20°C
Rocío: 17°C
Humedad: 83%
Barómetro: 1025 hPa
Clouds: Muy nuboso
Visibility: 10 km
Cloud details: Few Clouds 701 m
Parcialmente nuboso 1463 m
Muy nuboso 2103 m
2021/10/18 19:30 LEPA 181930Z 06005KT 9999 FEW023 SCT048 BKN069 20/17 Q1025 NOSIG
LEMH - Mahon/Menorca Is, Spain
Distance from station: ENE 105km
Actualización: Mon, 18-Oct-2021 9:30pm CEST
Despejado
Despejado
 Viento del ESE
Viento: ESE 6 km/h
Temperatura: 18°C
Rocío: 14°C
Humedad: 78%
Barómetro: 1025 hPa
Resumen: Despejado
Visibility: greater than 10 km
2021/10/18 19:30 LEMH 181930Z 12003KT CAVOK 18/14 Q1025
 
LEIB - Ibiza/Es Codola, Spain
Distance from station: OSO 165km
Actualización: Mon, 18-Oct-2021 9:30pm CEST
Few Clouds
Few Clouds
 Viento del NNO
Viento: NNO 7 km/h
Temperatura: 18°C
Rocío: 16°C
Humedad: 88%
Barómetro: 1025 hPa
Clouds: Few Clouds
Visibility: 10 km
Cloud details: Few Clouds 853 m
2021/10/18 19:30 LEIB 181930Z 34004KT 9999 FEW028 18/16 Q1025 NOSIG
LEBL - Barcelona Airpor, Spain
Distance from station: NNO 225km
Actualización: Mon, 18-Oct-2021 9:30pm CEST
Few Clouds
Few Clouds
 Viento del varies
Viento: varies 2 km/h
Temperatura: 19°C
Rocío: 17°C
Humedad: 88%
Barómetro: 1024 hPa
Clouds: Few Clouds
Visibility: 10 km
Cloud details: Few Clouds 579 m
2021/10/18 19:30 LEBL 181930Z VRB01KT 9999 FEW019 19/17 Q1024 NOSIG
 
LEVC - Valencia (civ/Mi, Spain
Distance from station: NO 188km
Actualización: Mon, 18-Oct-2021 9:30pm CEST
Few Clouds
Few Clouds
 Viento del NNE
Viento: NNE 7 km/h
Temperatura: 20°C
Rocío: 16°C
Humedad: 78%
Barómetro: 1025 hPa
Clouds: Few Clouds
Visibility: 10 km
Cloud details: Few Clouds 762 m
2021/10/18 19:30 LEVC 181930Z 03004KT 360V060 9999 FEW025 20/16 Q1025 NOSIG
LEGE - Gerona/Costa Bra, Spain
Distance from station: N 276km
Actualización: Mon, 18-Oct-2021 9:30pm CEST
Parcialmente nuboso
Parcialmente nuboso
 Viento del ENE
Viento: ENE 4 km/h
Temperatura: 17°C
Rocío: 16°C
Humedad: 94%
Barómetro: 1025 hPa
Clouds: Parcialmente nuboso
Visibility: 10 km
Cloud details: Parcialmente nuboso 213 m
2021/10/18 19:30 LEGE 181930Z 07002KT 9999 SCT007 17/16 Q1025
 
LEAL - Alicante/El Alte, Spain
Distance from station: OSO 344km
Actualización: Mon, 18-Oct-2021 9:30pm CEST
Few Clouds
Few Clouds
 Viento del ESE
Viento: ESE 6 km/h
Temperatura: 21°C
Rocío: 17°C
Humedad: 78%
Barómetro: 1024 hPa
Clouds: Few Clouds
Visibility: 10 km
Cloud details: Few Clouds 610 m
2021/10/18 19:30 LEAL 181930Z 12003KT 090V160 9999 FEW020 21/17 Q1024 NOSIG
LEAM - Almeria Airport, Spain
Distance from station: SSO 56km
Actualización: Mon, 18-Oct-2021 9:30pm CEST
Despejado
Despejado
 Viento del E
Viento: E 13 km/h
Temperatura: 21°C
Rocío: 16°C
Humedad: 73%
Barómetro: 1023 hPa
Resumen: Despejado
Visibility: greater than 10 km
2021/10/18 19:30 LEAM 181930Z 08007KT CAVOK 21/16 Q1023
 
LEZG - Zaragoza (mil/Ci, Spain
Distance from station: NO 431km
Actualización: Mon, 18-Oct-2021 9:30pm CEST
Despejado
Despejado
 Viento del SSO
Viento: SSO 9 km/h
Temperatura: 18°C
Rocío: 10°C
Humedad: 60%
Barómetro: 1024 hPa
Resumen: Despejado
Visibility: greater than 10 km
2021/10/18 19:30 LEZG 181930Z 20005KT CAVOK 18/10 Q1024
LEMD - Madrid/Barajas, Spain
Distance from station: ONO 234km
Actualización: Mon, 18-Oct-2021 9:30pm CEST
Despejado
Despejado
 Viento del SSO
Viento: SSO 4 km/h
Temperatura: 19°C
Rocío: 11°C
Humedad: 60%
Barómetro: 1024 hPa
Resumen: Despejado
Visibility: greater than 10 km
2021/10/18 19:30 LEMD 181930Z 21002KT CAVOK 19/11 Q1024 NOSIG
 
LEGR - Granada Airport, Spain
Distance from station: OSO 62km
Actualización: Mon, 18-Oct-2021 9:30pm CEST
Few Clouds
Few Clouds
 Viento del calm
Viento: Calma
Temperatura: 21°C
Rocío: 11°C
Humedad: 53%
Barómetro: 1023 hPa
Clouds: Few Clouds
Visibility: 10 km
Cloud details: Few Clouds 1829 m
2021/10/18 19:30 LEGR 181930Z 00000KT 9999 FEW060 21/11 Q1023
LEMG - Malaga (civ/Mil), Spain
Distance from station: OSO 227km
Actualización: Mon, 18-Oct-2021 9:30pm CEST
Few Clouds
Few Clouds
 Viento del E
Viento: E 7 km/h
Temperatura: 21°C
Rocío: 19°C
Humedad: 88%
Barómetro: 1023 hPa
Clouds: Few Clouds
Visibility: 10 km
Cloud details: Few Clouds 396 m
2021/10/18 19:30 LEMG 181930Z 10004KT 9999 FEW013 21/19 Q1023 NOSIG
 
LEZL - Sevilla (civ/Mil, Spain
Distance from station: S 318km
Actualización: Mon, 18-Oct-2021 9:30pm CEST
Despejado
Despejado
 Viento del varies
Viento: varies 2 km/h
Temperatura: 25°C
Rocío: 15°C
Humedad: 54%
Barómetro: 1019 hPa
Resumen: Despejado
Visibility: greater than 10 km
2021/10/18 19:30 LEZL 181930Z VRB01KT CAVOK 25/15 Q1019 NOSIG
LEVT - Vitoria, Spain
Distance from station: NO 226km
Actualización: Mon, 18-Oct-2021 9:30pm CEST
Despejado
Despejado
 Viento del SO
Viento: SO 6 km/h
Temperatura: 16°C
Rocío: 13°C
Humedad: 83%
Barómetro: 1024 hPa
Resumen: Despejado
Visibility: greater than 10 km
2021/10/18 19:30 LEVT 181930Z 23003KT CAVOK 16/13 Q1024
 
LEBB - Bilbao/Sondica, Spain
Distance from station: NNO 235km
Actualización: Mon, 18-Oct-2021 9:30pm CEST
Despejado
Despejado
 Viento del ESE
Viento: ESE 11 km/h
Temperatura: 20°C
Rocío: 17°C
Humedad: 83%
Barómetro: 1021 hPa
Resumen: Despejado
Visibility: greater than 10 km
2021/10/18 19:30 LEBB 181930Z 11006KT 080V140 CAVOK 20/17 Q1021 NOSIG
LESO - San Sebastian/Fu, Spain
Distance from station: N 231km
Actualización: Mon, 18-Oct-2021 9:30pm CEST
Despejado
Despejado
 Viento del SSO
Viento: SSO 7 km/h
Temperatura: 19°C
Rocío: 16°C
Humedad: 83%
Barómetro: 1021 hPa
Resumen: Despejado
Visibility: greater than 10 km
2021/10/18 19:30 LESO 181930Z 20004KT 170V230 CAVOK 19/16 Q1021
 
LEVD - Valladolid(Mil/C, Spain
Distance from station: ONO 239km
Actualización: Mon, 18-Oct-2021 9:30pm CEST
Despejado
Despejado
 Viento del ENE
Viento: ENE 7 km/h
Temperatura: 15°C
Rocío: 14°C
Humedad: 94%
Barómetro: 1025 hPa
Resumen: Despejado
Visibility: greater than 10 km
2021/10/18 19:30 LEVD 181930Z 07004KT CAVOK 15/14 Q1025
LESA - Salamanca (civ/M, Spain
Distance from station: ONO 349km
Actualización: Mon, 18-Oct-2021 9:30pm CEST
Despejado
Despejado
 Viento del E
Viento: E 7 km/h
Temperatura: 17°C
Rocío: 15°C
Humedad: 88%
Barómetro: 1025 hPa
Resumen: Despejado
Visibility: greater than 10 km
2021/10/18 19:30 LESA 181930Z AUTO 10004KT CAVOK 17/15 Q1025
 
LEXJ - Santander/Paraya, Spain
Distance from station: NNO 247km
Actualización: Mon, 18-Oct-2021 9:30pm CEST
Despejado
Despejado
 Viento del calm
Viento: Calma
Temperatura: 17°C
Rocío: 16°C
Humedad: 94%
Barómetro: 1020 hPa
Resumen: Despejado
Visibility: greater than 10 km
2021/10/18 19:30 LEXJ 181930Z 00000KT CAVOK 17/16 Q1020
LEAS - Asturias/Aviles, Spain
Distance from station: NO 214km
Actualización: Mon, 18-Oct-2021 9:30pm CEST
Despejado
Despejado
 Viento del S
Viento: S 6 km/h
Temperatura: 19°C
Rocío: 17°C
Humedad: 88%
Barómetro: 1019 hPa
Resumen: Despejado
Visibility: greater than 10 km
2021/10/18 19:30 LEAS 181930Z 17003KT CAVOK 19/17 Q1019 NOSIG
 
LECO - La Coruna/Alvedr, Spain
Distance from station: ONO 222km
Actualización: Mon, 18-Oct-2021 9:30pm CEST
Despejado
Despejado
 Viento del E
Viento: E 7 km/h
Temperatura: 19°C
Rocío: 19°C
Humedad: 100%
Barómetro: 1019 hPa
Resumen: Despejado
Visibility: greater than 10 km
2021/10/18 19:30 LECO 181930Z 08004KT 020V140 CAVOK 19/19 Q1019 NOSIG
LEVX - Vigo/Peinador, Spain
Distance from station: O 214km
Actualización: Mon, 18-Oct-2021 9:30pm CEST
Despejado
Despejado
 Viento del S
Viento: S 7 km/h
Temperatura: 19°C
Rocío: 17°C
Humedad: 88%
Barómetro: 1021 hPa
Resumen: Despejado
Visibility: greater than 10 km
2021/10/18 19:30 LEVX 181930Z 18004KT 150V240 CAVOK 19/17 Q1021 NOSIG